Time;durP1;ratioP1;P1;durP2;ratioP2;P2;SDS_P1;SDS_P2;PMS_P1;PMS_P2;Temp;Humidity;BMP_temperature;BMP_pressure;BME280_temperature;BME280_humidity;BME280_pressure;Samples;Min_cycle;Max_cycle;Signal;HPM_P1;HPM_P2
2021/01/25 00:01:22;;;;;;;21.48;12.88;;;1.40;99.90;;;;;;5090084;28;20081;-70
2021/01/25 00:03:48;;;;;;;22.75;12.45;;;1.40;99.90;;;;;;5090729;28;20048;-70
2021/01/25 00:06:14;;;;;;;26.60;12.32;;;1.30;99.90;;;;;;5089989;28;20456;-69
2021/01/25 00:08:39;;;;;;;24.13;13.15;;;1.40;99.90;;;;;;5072625;28;20028;-70
2021/01/25 00:11:05;;;;;;;21.38;12.52;;;1.40;99.90;;;;;;5087118;28;20075;-71
2021/01/25 00:13:30;;;;;;;23.75;13.27;;;1.40;99.90;;;;;;5090353;28;20028;-70
2021/01/25 00:15:56;;;;;;;25.90;12.02;;;1.40;99.90;;;;;;5050980;28;20037;-70
2021/01/25 00:18:23;;;;;;;23.20;12.85;;;1.40;99.90;;;;;;5070452;28;20044;-69
2021/01/25 00:20:48;;;;;;;29.95;13.30;;;1.40;99.90;;;;;;5090053;28;20346;-70
2021/01/25 00:23:14;;;;;;;24.65;13.02;;;1.50;99.90;;;;;;5095223;28;20364;-71
2021/01/25 00:25:39;;;;;;;23.88;12.55;;;1.50;99.90;;;;;;5089962;28;20028;-70
2021/01/25 00:28:05;;;;;;;27.75;13.52;;;1.50;99.90;;;;;;5096232;28;20378;-69
2021/01/25 00:30:34;;;;;;;23.88;12.52;;;1.50;99.90;;;;;;5088979;28;20035;-70
2021/01/25 00:32:59;;;;;;;24.85;12.07;;;1.50;99.90;;;;;;5088806;28;20074;-70
2021/01/25 00:35:25;;;;;;;21.88;11.70;;;1.50;99.90;;;;;;5086128;28;20044;-71
2021/01/25 00:37:50;;;;;;;24.80;11.65;;;1.50;99.90;;;;;;5089759;28;20472;-69
2021/01/25 00:40:16;;;;;;;25.60;13.60;;;1.50;99.90;;;;;;5082712;28;20068;-70
2021/01/25 00:42:43;;;;;;;20.45;12.30;;;1.50;99.90;;;;;;5053810;28;20024;-70
2021/01/25 00:45:09;;;;;;;22.65;13.35;;;1.60;99.90;;;;;;5088904;28;20062;-71
2021/01/25 00:47:35;;;;;;;28.40;14.60;;;1.60;99.90;;;;;;5086729;28;20016;-71
2021/01/25 00:50:01;;;;;;;22.63;12.80;;;1.70;99.90;;;;;;5064483;28;20040;-69
2021/01/25 00:52:27;;;;;;;35.65;14.50;;;1.70;99.90;;;;;;5088148;28;20127;-70
2021/01/25 00:54:53;;;;;;;24.30;13.20;;;1.60;99.90;;;;;;5070793;28;20536;-70
2021/01/25 00:57:19;;;;;;;21.98;13.63;;;1.60;99.90;;;;;;5088598;28;20040;-69
2021/01/25 00:59:45;;;;;;;24.02;13.65;;;1.60;99.90;;;;;;5089172;28;20047;-70
2021/01/25 01:02:11;;;;;;;28.23;14.40;;;1.60;99.90;;;;;;5060874;28;20469;-71
2021/01/25 01:04:37;;;;;;;26.17;14.45;;;1.70;99.90;;;;;;5069782;28;20071;-71
2021/01/25 01:07:03;;;;;;;22.35;14.40;;;1.70;99.90;;;;;;5096559;28;20016;-70
2021/01/25 01:09:29;;;;;;;26.67;14.07;;;1.60;99.90;;;;;;5088537;28;20400;-70
2021/01/25 01:11:56;;;;;;;21.75;13.85;;;1.70;99.90;;;;;;5088636;28;20024;-70
2021/01/25 01:14:23;;;;;;;22.65;13.88;;;1.70;99.90;;;;;;5089026;28;20070;-71
2021/01/25 01:16:48;;;;;;;22.33;13.00;;;1.70;99.90;;;;;;5086863;28;20060;-69
2021/01/25 01:19:15;;;;;;;23.70;14.20;;;1.70;99.90;;;;;;5079891;28;20045;-69
2021/01/25 01:21:40;;;;;;;28.08;14.75;;;1.80;99.90;;;;;;5053331;28;20558;-69
2021/01/25 01:24:07;;;;;;;25.05;14.75;;;1.80;99.90;;;;;;5089108;28;20040;-70
2021/01/25 01:26:32;;;;;;;26.70;15.38;;;1.80;99.90;;;;;;5070043;28;20046;-70
2021/01/25 01:28:58;;;;;;;22.02;13.88;;;1.80;99.90;;;;;;5088031;28;20020;-71
2021/01/25 01:31:24;;;;;;;31.65;18.30;;;1.80;99.90;;;;;;5052660;28;20034;-69
2021/01/25 01:33:49;;;;;;;27.90;16.85;;;1.70;99.90;;;;;;5083164;28;20039;-71
2021/01/25 01:36:16;;;;;;;27.13;16.88;;;1.70;99.90;;;;;;5083866;28;20047;-72
2021/01/25 01:38:42;;;;;;;35.20;18.73;;;1.80;99.90;;;;;;5088113;28;20515;-71
2021/01/25 01:41:07;;;;;;;31.20;18.33;;;1.70;99.90;;;;;;5084270;28;20039;-71
2021/01/25 01:43:34;;;;;;;32.30;17.02;;;1.70;99.90;;;;;;5089070;28;20103;-71
2021/01/25 01:46:01;;;;;;;28.80;17.45;;;1.80;99.90;;;;;;5089210;28;20034;-71
2021/01/25 01:48:28;;;;;;;33.78;18.38;;;1.90;99.90;;;;;;5090078;28;20377;-69
2021/01/25 01:50:55;;;;;;;33.53;19.00;;;1.80;99.90;;;;;;5089798;28;20023;-71
2021/01/25 01:53:21;;;;;;;32.55;18.67;;;1.80;99.90;;;;;;5069062;28;20445;-70
2021/01/25 01:55:46;;;;;;;34.50;18.73;;;1.80;99.90;;;;;;5069638;28;20036;-70
2021/01/25 01:58:14;;;;;;;38.65;19.98;;;1.90;99.90;;;;;;5069992;28;20075;-71
2021/01/25 02:00:40;;;;;;;36.10;21.15;;;1.90;99.90;;;;;;5088339;28;20032;-72
2021/01/25 02:03:05;;;;;;;35.05;20.17;;;1.70;99.90;;;;;;5079010;28;20020;-72
2021/01/25 02:05:31;;;;;;;34.88;18.90;;;1.70;99.90;;;;;;5053219;28;20036;-71
2021/01/25 02:07:59;;;;;;;37.42;20.15;;;1.80;99.90;;;;;;5088672;28;20024;-69
2021/01/25 02:10:25;;;;;;;34.63;19.27;;;1.80;99.90;;;;;;5085379;28;20012;-70
2021/01/25 02:12:58;;;;;;;34.90;19.80;;;1.80;99.90;;;;;;5087913;28;20408;-70
2021/01/25 02:15:25;;;;;;;32.90;18.30;;;1.70;99.90;;;;;;5071700;28;20047;-70
2021/01/25 02:17:52;;;;;;;36.42;18.90;;;1.70;99.90;;;;;;5089402;28;20012;-71
2021/01/25 02:20:24;;;;;;;38.35;19.58;;;1.70;99.90;;;;;;5068340;28;20027;-71
2021/01/25 02:23:17;;;;;;;32.05;18.20;;;1.80;99.90;;;;;;5089122;28;20028;-70
2021/01/25 02:26:02;;;;;;;34.90;19.48;;;1.70;99.90;;;;;;5076306;28;20031;-70
2021/01/25 02:28:32;;;;;;;41.45;20.48;;;1.70;99.90;;;;;;5075532;28;20433;-70
2021/01/25 02:31:00;;;;;;;42.17;19.63;;;1.60;99.90;;;;;;5088762;28;20104;-70
2021/01/25 02:33:28;;;;;;;41.00;20.92;;;1.60;99.90;;;;;;5088220;28;20056;-70
2021/01/25 02:35:55;;;;;;;44.38;22.00;;;1.50;99.90;;;;;;5078467;28;20085;-70
2021/01/25 02:38:21;;;;;;;42.97;22.00;;;1.50;99.90;;;;;;5087971;28;20107;-71
2021/01/25 02:40:48;;;;;;;48.20;22.30;;;1.50;99.90;;;;;;5087920;28;20020;-70
2021/01/25 02:43:15;;;;;;;50.97;23.42;;;1.50;99.90;;;;;;5088176;28;20362;-69
2021/01/25 02:45:42;;;;;;;44.42;23.67;;;1.40;99.90;;;;;;5087929;28;20133;-72
2021/01/25 02:48:08;;;;;;;50.10;23.83;;;1.40;99.90;;;;;;5088436;28;20028;-71
2021/01/25 02:50:34;;;;;;;42.38;21.10;;;1.50;99.90;;;;;;5088448;28;20020;-69
2021/01/25 02:52:59;;;;;;;42.53;22.45;;;1.50;99.90;;;;;;5084052;28;20488;-70
2021/01/25 02:55:26;;;;;;;42.35;21.23;;;1.60;99.90;;;;;;5067905;28;20032;-70
2021/01/25 02:57:52;;;;;;;45.28;21.45;;;1.60;99.90;;;;;;5084276;28;20101;-70
2021/01/25 03:00:18;;;;;;;39.58;21.50;;;1.50;99.90;;;;;;5083944;28;20549;-70
2021/01/25 03:02:47;;;;;;;39.30;20.65;;;1.60;99.90;;;;;;5087980;28;20072;-70
2021/01/25 03:05:13;;;;;;;34.88;19.52;;;1.50;99.90;;;;;;5087543;28;20028;-69
2021/01/25 03:07:38;;;;;;;39.25;21.58;;;1.40;99.90;;;;;;5083995;28;20026;-71
2021/01/25 03:10:05;;;;;;;42.17;20.23;;;1.40;99.90;;;;;;5087102;28;20019;-70
2021/01/25 03:12:31;;;;;;;42.85;22.58;;;1.50;99.90;;;;;;5085616;28;20112;-70
2021/01/25 03:14:57;;;;;;;40.58;21.35;;;1.40;99.90;;;;;;5086968;28;20450;-70
2021/01/25 03:17:23;;;;;;;49.33;23.02;;;1.50;99.90;;;;;;5087165;28;20020;-70
2021/01/25 03:19:48;;;;;;;45.55;22.40;;;1.50;99.90;;;;;;5086534;28;20619;-68
2021/01/25 03:22:14;;;;;;;39.47;22.00;;;1.60;99.90;;;;;;5086358;28;20093;-69
2021/01/25 03:24:40;;;;;;;47.13;23.23;;;1.60;99.90;;;;;;5086650;28;20028;-69
2021/01/25 03:27:06;;;;;;;52.13;24.33;;;1.50;99.90;;;;;;5084197;28;20079;-70
2021/01/25 03:29:32;;;;;;;44.20;23.13;;;1.50;99.90;;;;;;5090810;28;20519;-69
2021/01/25 03:31:58;;;;;;;51.33;24.88;;;1.60;99.90;;;;;;5072999;28;20472;-70
2021/01/25 03:34:24;;;;;;;51.58;25.17;;;1.60;99.90;;;;;;5073383;28;20085;-69
2021/01/25 03:36:49;;;;;;;54.53;26.77;;;1.70;99.90;;;;;;5091281;28;20123;-69
2021/01/25 03:39:15;;;;;;;61.03;26.98;;;1.60;99.90;;;;;;5090770;28;20720;-69
2021/01/25 03:41:40;;;;;;;58.92;27.98;;;1.50;99.90;;;;;;5090353;28;20028;-69
2021/01/25 03:44:06;;;;;;;66.95;28.00;;;1.40;99.90;;;;;;5090614;28;20040;-69
2021/01/25 03:46:32;;;;;;;65.93;28.40;;;1.50;99.90;;;;;;5091322;28;20032;-69
2021/01/25 03:48:57;;;;;;;60.40;28.10;;;1.50;99.90;;;;;;5091431;28;20040;-68
2021/01/25 03:51:23;;;;;;;63.42;27.90;;;1.50;99.90;;;;;;5090399;28;20024;-69
2021/01/25 03:53:49;;;;;;;65.40;28.15;;;1.40;99.90;;;;;;5089239;28;20052;-71
2021/01/25 03:56:15;;;;;;;54.97;27.92;;;1.40;99.90;;;;;;5089777;28;20559;-70
2021/01/25 03:58:41;;;;;;;67.93;31.25;;;1.40;99.90;;;;;;5090923;28;20047;-70
2021/01/25 04:01:07;;;;;;;71.10;30.10;;;1.30;99.90;;;;;;5056743;28;20033;-67
2021/01/25 04:03:33;;;;;;;71.40;33.47;;;1.30;99.90;;;;;;5090381;28;20024;-70
2021/01/25 04:05:58;;;;;;;74.65;32.20;;;1.20;99.90;;;;;;5090959;28;20078;-70
2021/01/25 04:08:24;;;;;;;65.35;30.50;;;1.20;99.90;;;;;;5091404;28;20483;-69
2021/01/25 04:10:50;;;;;;;70.93;32.50;;;1.30;99.90;;;;;;5084983;28;20071;-69
2021/01/25 04:13:16;;;;;;;67.55;30.38;;;1.20;99.90;;;;;;5082051;28;20028;-68
2021/01/25 04:15:41;;;;;;;78.80;34.15;;;1.20;99.90;;;;;;5089645;28;20242;-69
2021/01/25 04:18:07;;;;;;;73.70;35.53;;;1.10;99.90;;;;;;5069291;28;20093;-69
2021/01/25 04:20:32;;;;;;;73.38;34.28;;;1.10;99.90;;;;;;5095409;28;20036;-70
2021/01/25 04:22:58;;;;;;;82.50;37.25;;;1.10;99.90;;;;;;5091577;28;20111;-69
2021/01/25 04:25:24;;;;;;;82.80;37.60;;;1.10;99.90;;;;;;5088095;28;20053;-68
2021/01/25 04:27:50;;;;;;;81.78;34.80;;;1.10;99.90;;;;;;5083468;28;20024;-68
2021/01/25 04:30:16;;;;;;;84.18;37.83;;;1.10;99.90;;;;;;5092229;28;20032;-69
2021/01/25 04:32:42;;;;;;;70.70;34.78;;;1.10;99.90;;;;;;5089409;28;20078;-70
2021/01/25 04:35:13;;;;;;;69.35;34.17;;;1.10;99.90;;;;;;5088974;28;20485;-70
2021/01/25 04:37:40;;;;;;;71.15;33.67;;;1.20;99.90;;;;;;5084722;28;20024;-69
2021/01/25 04:40:07;;;;;;;75.10;35.40;;;1.20;99.90;;;;;;5089146;28;20489;-69
2021/01/25 04:42:33;;;;;;;75.03;35.13;;;1.20;99.90;;;;;;5088150;28;20028;-68
2021/01/25 04:45:00;;;;;;;66.28;33.22;;;1.20;99.90;;;;;;5080764;28;20442;-69
2021/01/25 04:47:27;;;;;;;77.93;34.45;;;1.20;99.90;;;;;;5060955;28;20439;-69
2021/01/25 04:49:53;;;;;;;65.35;33.15;;;1.20;99.90;;;;;;5088401;28;20024;-70
2021/01/25 04:52:19;;;;;;;74.50;33.00;;;1.30;99.90;;;;;;5071244;28;20051;-68
2021/01/25 04:54:49;;;;;;;76.00;33.22;;;1.30;99.90;;;;;;5088503;28;20454;-69
2021/01/25 04:57:15;;;;;;;74.05;35.00;;;1.30;99.90;;;;;;5088793;28;20374;-70
2021/01/25 04:59:43;;;;;;;80.18;36.13;;;1.20;99.90;;;;;;5082841;28;20126;-69
2021/01/25 05:02:10;;;;;;;69.82;34.45;;;1.20;99.90;;;;;;5079402;28;20023;-70
2021/01/25 05:04:35;;;;;;;69.40;32.08;;;1.20;99.90;;;;;;5088809;28;20012;-69
2021/01/25 05:07:01;;;;;;;72.38;32.40;;;1.30;99.90;;;;;;5082992;28;20034;-71
2021/01/25 05:09:27;;;;;;;63.80;32.00;;;1.40;99.90;;;;;;5081159;28;20549;-69
2021/01/25 05:11:59;;;;;;;65.50;31.27;;;1.30;99.90;;;;;;5080824;28;20032;-69
2021/01/25 05:14:25;;;;;;;70.93;32.00;;;1.40;99.90;;;;;;5073387;28;20133;-69
2021/01/25 05:16:51;;;;;;;62.30;30.17;;;1.40;99.90;;;;;;5074468;28;20052;-69
2021/01/25 05:19:17;;;;;;;61.80;30.30;;;1.40;99.90;;;;;;5067090;28;20138;-67
2021/01/25 05:21:45;;;;;;;61.25;32.40;;;1.40;99.90;;;;;;5052242;28;20028;-70
2021/01/25 05:24:13;;;;;;;62.92;32.83;;;1.30;99.90;;;;;;5068399;28;20028;-70
2021/01/25 05:27:01;;;;;;;55.72;30.30;;;1.30;99.90;;;;;;5064470;28;20048;-69
2021/01/25 05:29:28;;;;;;;58.28;29.20;;;1.30;99.90;;;;;;5058028;28;20027;-70
2021/01/25 05:31:56;;;;;;;60.58;30.15;;;1.30;99.90;;;;;;5068275;28;20037;-69
2021/01/25 05:34:22;;;;;;;57.03;29.38;;;1.30;99.90;;;;;;5068440;28;20079;-70
2021/01/25 05:36:49;;;;;;;59.25;29.40;;;1.30;99.90;;;;;;5068044;28;20075;-67
2021/01/25 05:39:16;;;;;;;57.25;28.38;;;1.30;99.90;;;;;;5064626;28;20031;-69
2021/01/25 05:41:55;;;;;;;54.13;29.73;;;1.30;99.90;;;;;;5067567;28;20162;-70
2021/01/25 05:44:21;;;;;;;55.78;27.63;;;1.30;99.90;;;;;;5067388;28;20397;-70
2021/01/25 05:46:47;;;;;;;54.58;29.08;;;1.20;99.90;;;;;;5068516;28;20042;-69
2021/01/25 05:49:12;;;;;;;58.17;29.20;;;1.20;99.90;;;;;;5067551;28;20115;-70
2021/01/25 05:51:40;;;;;;;54.22;28.98;;;1.20;99.90;;;;;;5067674;28;20025;-70
2021/01/25 05:54:06;;;;;;;55.72;30.25;;;1.10;99.90;;;;;;5050630;28;20037;-70
2021/01/25 05:56:32;;;;;;;53.35;27.60;;;1.10;99.90;;;;;;5066199;28;20106;-70
2021/01/25 05:58:58;;;;;;;57.08;29.42;;;1.20;99.90;;;;;;5047893;28;20641;-69
2021/01/25 06:01:24;;;;;;;55.40;28.20;;;1.10;99.90;;;;;;5064701;28;20024;-70
2021/01/25 06:03:50;;;;;;;55.33;27.92;;;1.10;99.90;;;;;;5067332;28;20031;-68
2021/01/25 06:06:24;;;;;;;53.83;26.90;;;1.10;99.90;;;;;;5065780;28;20058;-70
2021/01/25 06:08:52;;;;;;;55.30;29.92;;;1.10;99.90;;;;;;5067887;28;20024;-71
2021/01/25 06:11:28;;;;;;;61.75;30.77;;;1.10;99.90;;;;;;5069232;28;20024;-71
2021/01/25 06:14:04;;;;;;;55.25;28.92;;;1.00;99.90;;;;;;5073949;27;20378;-70
2021/01/25 06:16:33;;;;;;;59.78;28.60;;;1.10;99.90;;;;;;5081099;28;20036;-70
2021/01/25 06:19:01;;;;;;;68.35;31.85;;;1.00;99.90;;;;;;5064746;28;20061;-69
2021/01/25 06:21:32;;;;;;;68.95;33.08;;;0.90;99.90;;;;;;5085775;28;20023;-68
2021/01/25 06:24:03;;;;;;;65.95;31.52;;;0.80;99.90;;;;;;5080711;28;20031;-71
2021/01/25 06:26:34;;;;;;;68.28;33.03;;;0.80;99.90;;;;;;5060902;28;20036;-70
2021/01/25 06:29:05;;;;;;;63.50;31.63;;;0.80;99.90;;;;;;5078590;28;20111;-70
2021/01/25 06:31:40;;;;;;;63.00;30.48;;;0.80;99.90;;;;;;5084921;28;20035;-70
2021/01/25 06:34:08;;;;;;;61.75;30.30;;;0.80;99.90;;;;;;5091857;28;20385;-70
2021/01/25 06:36:34;;;;;;;62.92;29.88;;;0.80;99.90;;;;;;5087180;28;20111;-70
2021/01/25 06:39:04;;;;;;;63.15;30.55;;;0.80;99.90;;;;;;5070550;28;20477;-69
2021/01/25 06:41:36;;;;;;;62.58;32.25;;;0.70;99.90;;;;;;5092157;28;20039;-70
2021/01/25 06:44:03;;;;;;;58.33;28.92;;;0.80;99.90;;;;;;5089510;28;20161;-71
2021/01/25 06:46:31;;;;;;;54.28;28.35;;;0.70;99.90;;;;;;5086955;28;20081;-72
2021/01/25 06:48:58;;;;;;;72.13;30.23;;;0.70;99.90;;;;;;5069551;28;20501;-71
2021/01/25 06:51:24;;;;;;;67.07;30.80;;;0.70;99.90;;;;;;5085698;28;20408;-70
2021/01/25 06:53:52;;;;;;;57.28;29.92;;;0.70;99.90;;;;;;5088526;28;20040;-70
2021/01/25 06:56:20;;;;;;;63.10;30.65;;;0.70;99.90;;;;;;5048643;28;20035;-69
2021/01/25 06:58:47;;;;;;;58.80;32.28;;;0.60;99.90;;;;;;5087220;28;20028;-70
2021/01/25 07:01:21;;;;;;;59.35;30.63;;;0.60;99.90;;;;;;5089483;28;20476;-72
2021/01/25 07:03:56;;;;;;;55.92;27.95;;;0.60;99.90;;;;;;5082447;28;20491;-71
2021/01/25 07:06:44;;;;;;;55.70;29.20;;;0.60;99.90;;;;;;5089973;28;20024;-71
2021/01/25 07:09:10;;;;;;;57.85;29.42;;;0.60;99.90;;;;;;5085278;28;20512;-72
2021/01/25 07:11:36;;;;;;;58.58;28.60;;;0.60;99.90;;;;;;5089438;28;20040;-68
2021/01/25 07:14:02;;;;;;;59.78;28.38;;;0.60;99.90;;;;;;5091823;28;20501;-70
2021/01/25 07:16:28;;;;;;;61.25;29.15;;;0.60;99.90;;;;;;5080256;28;20490;-68
2021/01/25 07:18:54;;;;;;;56.78;27.58;;;0.60;99.90;;;;;;5084676;28;20121;-70
2021/01/25 07:21:21;;;;;;;61.50;28.30;;;0.60;99.90;;;;;;5078361;28;20489;-69
2021/01/25 07:23:49;;;;;;;59.25;28.70;;;0.60;99.90;;;;;;5086816;28;20444;-70
2021/01/25 07:26:17;;;;;;;56.30;27.88;;;0.60;99.90;;;;;;5090191;28;20090;-69
2021/01/25 07:28:45;;;;;;;54.97;28.00;;;0.60;99.90;;;;;;5078200;28;20025;-70
2021/01/25 07:31:11;;;;;;;60.58;28.77;;;0.60;99.90;;;;;;5083885;28;20047;-71
2021/01/25 07:33:38;;;;;;;61.10;30.13;;;0.50;99.90;;;;;;5081951;28;20028;-69
2021/01/25 07:36:04;;;;;;;62.78;30.20;;;0.50;99.90;;;;;;5085556;28;20504;-70
2021/01/25 07:38:30;;;;;;;60.35;28.95;;;0.50;99.90;;;;;;5084806;28;20051;-68
2021/01/25 07:40:59;;;;;;;57.30;28.98;;;0.50;99.90;;;;;;5087560;28;20105;-70
2021/01/25 07:43:29;;;;;;;58.75;29.55;;;0.50;99.90;;;;;;5085815;28;20097;-71
2021/01/25 07:46:09;;;;;;;58.72;29.95;;;0.50;99.90;;;;;;5091872;28;20028;-71
2021/01/25 07:48:56;;;;;;;58.20;28.60;;;0.50;99.90;;;;;;5077843;28;20035;-70
2021/01/25 07:51:23;;;;;;;53.63;27.65;;;0.50;99.90;;;;;;5079297;28;20102;-71
2021/01/25 07:53:49;;;;;;;51.33;28.65;;;0.50;99.90;;;;;;5079320;28;20036;-70
2021/01/25 07:56:18;;;;;;;58.65;27.63;;;0.50;99.90;;;;;;5068570;28;20492;-71
2021/01/25 07:58:45;;;;;;;57.42;29.40;;;0.50;99.90;;;;;;5073802;28;20051;-70
2021/01/25 08:01:21;;;;;;;58.33;28.70;;;0.50;99.90;;;;;;5081132;28;20485;-71
2021/01/25 08:03:52;;;;;;;57.17;28.75;;;0.50;99.90;;;;;;5058064;28;20159;-70
2021/01/25 08:06:18;;;;;;;58.72;29.27;;;0.60;99.90;;;;;;5073343;28;20031;-70
2021/01/25 08:08:50;;;;;;;62.97;27.73;;;0.60;99.90;;;;;;5072306;28;20032;-70
2021/01/25 08:11:18;;;;;;;52.35;26.45;;;0.60;99.90;;;;;;5090510;28;20012;-70
2021/01/25 08:13:54;;;;;;;52.22;26.55;;;0.50;99.90;;;;;;5055512;28;20051;-70
2021/01/25 08:16:23;;;;;;;51.95;26.80;;;0.50;99.90;;;;;;5072162;28;20190;-71
2021/01/25 08:19:02;;;;;;;55.97;27.02;;;0.60;99.90;;;;;;5077801;28;20373;-71
2021/01/25 08:21:34;;;;;;;54.72;25.50;;;0.60;99.90;;;;;;5090640;28;20683;-70
2021/01/25 08:24:02;;;;;;;55.53;27.45;;;0.60;99.90;;;;;;5090663;28;20028;-71
2021/01/25 08:26:30;;;;;;;51.95;25.23;;;0.70;99.90;;;;;;5078651;28;20071;-70
2021/01/25 08:29:12;;;;;;;52.80;25.88;;;0.70;99.90;;;;;;5090761;28;20031;-71
2021/01/25 08:31:43;;;;;;;52.72;25.58;;;0.80;99.90;;;;;;5088853;28;20082;-72
2021/01/25 08:34:25;;;;;;;50.72;25.67;;;0.80;99.90;;;;;;5081213;28;20583;-70
2021/01/25 08:37:00;;;;;;;57.72;26.45;;;0.90;99.90;;;;;;5082247;28;20036;-72
2021/01/25 08:39:34;;;;;;;47.83;25.27;;;0.90;99.90;;;;;;5066840;28;20032;-70
2021/01/25 08:42:02;;;;;;;54.65;26.25;;;0.90;99.90;;;;;;5088975;28;20103;-71
2021/01/25 08:44:28;;;;;;;49.10;26.55;;;0.90;99.90;;;;;;5089200;28;20032;-71
2021/01/25 08:46:54;;;;;;;56.75;27.25;;;0.90;99.90;;;;;;5082044;28;20024;-71
2021/01/25 08:49:39;;;;;;;48.50;25.25;;;1.00;99.90;;;;;;5088587;28;20104;-70
2021/01/25 08:52:43;;;;;;;48.92;25.15;;;1.00;99.90;;;;;;5070882;28;20077;-70
2021/01/25 08:55:35;;;;;;;48.53;23.48;;;1.10;99.90;;;;;;5089454;28;20071;-70
2021/01/25 08:58:00;;;;;;;44.30;23.60;;;1.20;99.90;;;;;;5088545;28;20147;-70
2021/01/25 09:00:26;;;;;;;52.22;23.58;;;1.20;99.90;;;;;;5082215;28;20355;-71
2021/01/25 09:02:57;;;;;;;50.33;25.27;;;1.30;99.90;;;;;;5090015;28;20043;-70
2021/01/25 09:05:23;;;;;;;56.38;25.92;;;1.30;99.90;;;;;;5076873;28;20425;-71
2021/01/25 09:07:52;;;;;;;52.15;24.80;;;1.40;99.90;;;;;;5077630;28;20028;-70
2021/01/25 09:10:18;;;;;;;49.58;25.63;;;1.50;99.90;;;;;;5073599;28;20546;-71
2021/01/25 09:12:45;;;;;;;48.65;24.25;;;1.50;99.90;;;;;;5088843;28;20028;-70
2021/01/25 09:15:12;;;;;;;51.67;25.02;;;1.60;99.90;;;;;;5089126;28;20056;-71
2021/01/25 09:17:38;;;;;;;47.58;24.48;;;1.60;99.90;;;;;;5065249;28;20512;-71
2021/01/25 09:20:06;;;;;;;49.63;24.23;;;1.80;99.90;;;;;;5072250;28;20131;-69
2021/01/25 09:22:32;;;;;;;41.90;21.05;;;1.80;99.90;;;;;;5081296;28;20024;-72
2021/01/25 09:24:58;;;;;;;44.55;22.35;;;1.80;99.90;;;;;;5080345;28;20025;-71
2021/01/25 09:27:24;;;;;;;38.88;20.83;;;1.90;99.90;;;;;;5078276;28;20035;-71
2021/01/25 09:29:49;;;;;;;41.67;21.85;;;1.90;99.90;;;;;;5080400;28;20020;-71
2021/01/25 09:32:15;;;;;;;40.03;20.33;;;1.90;99.90;;;;;;5082163;28;20028;-71
2021/01/25 09:34:40;;;;;;;38.42;19.60;;;1.90;99.90;;;;;;5088931;28;20055;-73
2021/01/25 09:37:09;;;;;;;36.25;19.63;;;2.00;99.90;;;;;;5067134;28;20073;-71
2021/01/25 09:39:35;;;;;;;34.38;19.42;;;2.10;99.90;;;;;;5075776;28;20152;-73
2021/01/25 09:42:01;;;;;;;34.90;19.17;;;2.20;99.90;;;;;;5075248;28;20123;-71
2021/01/25 09:44:26;;;;;;;36.85;17.50;;;2.20;99.90;;;;;;5064081;28;20385;-73
2021/01/25 09:46:52;;;;;;;36.95;20.02;;;2.20;99.90;;;;;;5070368;28;20020;-71
2021/01/25 09:49:18;;;;;;;39.05;19.83;;;2.30;99.90;;;;;;5087237;28;20047;-71
2021/01/25 09:51:48;;;;;;;29.90;17.60;;;2.50;99.90;;;;;;5048293;28;20017;-70
2021/01/25 09:54:14;;;;;;;30.27;17.95;;;2.50;99.90;;;;;;5074770;28;20541;-71
2021/01/25 09:56:39;;;;;;;33.33;17.13;;;2.50;99.90;;;;;;5077747;28;20021;-71
2021/01/25 09:59:05;;;;;;;29.65;17.02;;;2.50;99.90;;;;;;5060136;28;20027;-71
2021/01/25 10:01:30;;;;;;;27.95;15.05;;;2.40;99.90;;;;;;5085054;28;20109;-71
2021/01/25 10:03:56;;;;;;;32.80;15.43;;;2.30;99.90;;;;;;5070009;28;20043;-71
2021/01/25 10:06:22;;;;;;;28.08;16.02;;;2.40;99.90;;;;;;5086936;28;20024;-71
2021/01/25 10:08:48;;;;;;;29.50;14.68;;;2.50;99.90;;;;;;5088229;28;20031;-71
2021/01/25 10:11:14;;;;;;;29.08;15.88;;;2.50;99.90;;;;;;5070718;28;20035;-71
2021/01/25 10:13:40;;;;;;;27.23;15.00;;;2.60;99.90;;;;;;5085867;28;20032;-71
2021/01/25 10:16:05;;;;;;;30.73;17.52;;;2.80;99.90;;;;;;5081359;28;20044;-71
2021/01/25 10:18:31;;;;;;;28.00;15.60;;;3.00;99.90;;;;;;5070965;28;20459;-70
2021/01/25 10:20:58;;;;;;;25.42;14.30;;;3.10;99.90;;;;;;5085036;28;20016;-71
2021/01/25 10:23:24;;;;;;;21.17;12.63;;;3.10;99.90;;;;;;5085840;28;20028;-71
2021/01/25 10:25:50;;;;;;;19.58;11.63;;;3.10;99.90;;;;;;5068464;28;20487;-72
2021/01/25 10:28:18;;;;;;;18.02;9.98;;;3.00;99.90;;;;;;5087786;28;20016;-71
2021/01/25 10:30:45;;;;;;;20.55;10.55;;;3.00;99.90;;;;;;5069215;28;20119;-71
2021/01/25 10:33:11;;;;;;;18.08;11.27;;;3.00;99.90;;;;;;5071859;28;20055;-71
2021/01/25 10:35:37;;;;;;;24.30;11.45;;;3.20;99.90;;;;;;5074537;28;20063;-70
2021/01/25 10:38:04;;;;;;;21.90;11.40;;;3.50;99.90;;;;;;5052019;28;20047;-70
2021/01/25 10:40:30;;;;;;;22.10;10.70;;;3.70;99.90;;;;;;5085969;28;20020;-73
2021/01/25 10:42:56;;;;;;;18.48;10.75;;;3.80;99.90;;;;;;5054049;28;20557;-70
2021/01/25 10:45:22;;;;;;;23.90;11.82;;;3.70;99.90;;;;;;5075187;28;20051;-71
2021/01/25 10:47:48;;;;;;;18.95;11.18;;;3.80;99.90;;;;;;5072249;28;20037;-71
2021/01/25 10:50:14;;;;;;;22.02;12.25;;;4.10;99.90;;;;;;5064223;28;20031;-71
2021/01/25 10:52:40;;;;;;;18.77;10.63;;;4.20;99.90;;;;;;5080025;28;20565;-71
2021/01/25 10:55:06;;;;;;;22.83;11.50;;;4.30;99.90;;;;;;5071502;28;20064;-72
2021/01/25 10:57:35;;;;;;;26.75;12.48;;;4.20;99.90;;;;;;5087729;28;20016;-71
2021/01/25 11:00:05;;;;;;;22.48;10.77;;;4.00;99.90;;;;;;5085137;28;20151;-72
2021/01/25 11:02:31;;;;;;;22.63;10.30;;;3.90;99.90;;;;;;5081297;28;20020;-73
2021/01/25 11:04:56;;;;;;;22.60;10.07;;;4.10;99.90;;;;;;5076549;28;20034;-71
2021/01/25 11:07:22;;;;;;;18.13;8.95;;;4.40;99.90;;;;;;5079776;28;20027;-72
2021/01/25 11:09:48;;;;;;;19.33;10.32;;;4.50;99.90;;;;;;5063910;28;20024;-72
2021/01/25 11:12:13;;;;;;;16.95;9.98;;;4.50;99.90;;;;;;5077374;28;20028;-72
2021/01/25 11:14:39;;;;;;;17.30;9.35;;;4.90;99.90;;;;;;5078518;28;20052;-72
2021/01/25 11:17:04;;;;;;;18.75;9.25;;;5.20;99.90;;;;;;5076398;28;20084;-72
2021/01/25 11:19:30;;;;;;;16.23;8.63;;;4.80;99.90;;;;;;5071331;28;20218;-72
2021/01/25 11:21:55;;;;;;;16.98;9.50;;;4.80;99.90;;;;;;5088389;28;20039;-70
2021/01/25 11:24:21;;;;;;;19.20;9.05;;;4.80;99.90;;;;;;5088916;28;20032;-73
2021/01/25 11:26:46;;;;;;;14.63;8.88;;;5.00;99.90;;;;;;5089310;28;20027;-72
2021/01/25 11:29:15;;;;;;;21.33;11.02;;;5.40;99.90;;;;;;5086907;28;20031;-72
2021/01/25 11:31:41;;;;;;;23.30;11.80;;;5.80;99.90;;;;;;5069460;28;20019;-73
2021/01/25 11:34:06;;;;;;;21.77;13.15;;;6.00;99.90;;;;;;5086849;28;20115;-72
2021/01/25 11:36:32;;;;;;;20.83;12.30;;;5.90;99.90;;;;;;5075660;28;20032;-72
2021/01/25 11:38:57;;;;;;;22.40;11.77;;;6.00;99.90;;;;;;5074536;28;20033;-73
2021/01/25 11:41:23;;;;;;;25.05;11.15;;;6.10;99.90;;;;;;5069437;28;20429;-74
2021/01/25 11:43:48;;;;;;;20.42;10.88;;;6.00;99.90;;;;;;5077574;28;20036;-72
2021/01/25 11:46:14;;;;;;;19.33;11.10;;;5.90;99.90;;;;;;5084764;28;20028;-73
2021/01/25 11:48:40;;;;;;;18.98;10.90;;;6.20;99.90;;;;;;5086750;28;20028;-73
2021/01/25 11:51:05;;;;;;;21.65;10.52;;;6.50;99.90;;;;;;5091353;28;20059;-73
2021/01/25 11:53:31;;;;;;;32.47;10.88;;;6.30;99.90;;;;;;5085134;28;20543;-73
2021/01/25 11:55:58;;;;;;;19.50;11.35;;;6.30;99.90;;;;;;5090864;28;20025;-73
2021/01/25 11:58:24;;;;;;;19.27;10.75;;;6.30;99.90;;;;;;5072192;28;20020;-75
2021/01/25 12:00:50;;;;;;;19.95;10.50;;;6.70;99.90;;;;;;5075585;28;20044;-74
2021/01/25 12:03:16;;;;;;;21.52;10.80;;;7.10;99.90;;;;;;5090276;28;20505;-71
2021/01/25 12:05:41;;;;;;;22.23;11.77;;;7.10;99.90;;;;;;5089783;28;20024;-73
2021/01/25 12:08:07;;;;;;;19.55;9.93;;;7.00;99.90;;;;;;5090192;28;20027;-73
2021/01/25 12:10:33;;;;;;;20.30;10.75;;;6.70;99.90;;;;;;5064058;28;20025;-72
2021/01/25 12:12:58;;;;;;;13.98;8.60;;;7.00;99.90;;;;;;5053986;28;20057;-72
2021/01/25 12:15:24;;;;;;;14.90;8.38;;;7.10;99.90;;;;;;5064204;28;20067;-72
2021/01/25 12:17:49;;;;;;;13.52;7.88;;;6.70;99.90;;;;;;5081884;28;20382;-73
2021/01/25 12:20:16;;;;;;;10.75;6.80;;;7.00;99.90;;;;;;5082527;28;20115;-73
2021/01/25 12:22:42;;;;;;;11.25;6.05;;;7.30;99.90;;;;;;5069845;28;20083;-73
2021/01/25 12:25:08;;;;;;;16.30;6.93;;;7.20;99.90;;;;;;5072185;28;20442;-72
2021/01/25 12:27:34;;;;;;;11.75;7.63;;;7.30;99.90;;;;;;5048534;28;20556;-73
2021/01/25 12:29:59;;;;;;;16.05;8.50;;;7.30;99.90;;;;;;5087406;28;20095;-73
2021/01/25 12:32:25;;;;;;;12.38;6.85;;;7.50;99.90;;;;;;5082422;28;20043;-72
2021/01/25 12:34:50;;;;;;;14.55;7.47;;;7.80;99.90;;;;;;5086691;28;20032;-72
2021/01/25 12:37:17;;;;;;;11.00;7.53;;;8.10;99.90;;;;;;5085309;28;20024;-71
2021/01/25 12:39:43;;;;;;;14.43;8.63;;;8.20;99.90;;;;;;5081088;28;20021;-72